Time;durP1;ratioP1;P1;durP2;ratioP2;P2;SDS_P1;SDS_P2;PMS_P1;PMS_P2;Temp;Humidity;BMP_temperature;BMP_pressure;BME280_temperature;BME280_humidity;BME280_pressure;Samples;Min_cycle;Max_cycle;Signal;HPM_P1;HPM_P2
2023/04/04 00:00:07;;;;;;;;;;;;;;;;;;;;;
2023/04/04 00:06:43;;;;;;;0.17;0.17;;;;;;;-146.25;100.00;57403.91;4996711;28;20189;-92
2023/04/04 00:13:11;;;;;;;;;;;;;;;;;;;;;
2023/04/04 00:15:54;;;;;;;0.37;0.33;;;;;;;-146.25;100.00;57403.91;4999194;28;20197;-93
2023/04/04 00:18:49;;;;;;;0.10;0.10;;;;;;;-146.25;100.00;57403.91;4998976;28;20232;-95
2023/04/04 00:21:26;;;;;;;0.17;0.17;;;;;;;-146.25;100.00;57403.91;4961230;28;20293;-91
2023/04/04 00:23:58;;;;;;;0.00;0.00;;;;;;;-146.25;100.00;57403.91;4997362;28;20201;-92
2023/04/04 00:26:33;;;;;;;0.10;0.10;;;;;;;-146.25;100.00;57403.91;4996438;28;20643;-93
2023/04/04 00:29:11;;;;;;;0.13;0.13;;;;;;;-146.25;100.00;57403.91;4996413;28;20209;-93
2023/04/04 00:31:52;;;;;;;0.30;0.20;;;;;;;-146.25;100.00;57403.91;4995927;28;20208;-92
2023/04/04 00:34:45;;;;;;;0.00;0.00;;;;;;;-146.25;100.00;57403.91;4995245;28;20201;-92
2023/04/04 00:37:17;;;;;;;0.10;0.10;;;;;;;-146.25;100.00;57403.91;4996805;28;20228;-93
2023/04/04 00:39:55;;;;;;;0.00;0.00;;;;;;;-146.25;100.00;57403.91;4996735;28;20191;-91
2023/04/04 00:42:28;;;;;;;0.90;0.30;;;;;;;-146.25;100.00;57403.91;4995413;28;20208;-91
2023/04/04 00:45:01;;;;;;;0.30;0.30;;;;;;;-146.25;100.00;57403.91;4994737;28;20197;-91
2023/04/04 00:47:35;;;;;;;0.30;0.30;;;;;;;-146.25;100.00;57403.91;4996225;28;20197;-93
2023/04/04 00:50:03;;;;;;;0.20;0.20;;;;;;;-146.25;100.00;57403.91;4996140;28;20218;-91
2023/04/04 00:52:42;;;;;;;0.53;0.53;;;;;;;-146.25;100.00;57403.91;4995851;28;20228;-91
2023/04/04 00:55:11;;;;;;;0.10;0.10;;;;;;;-146.25;100.00;57403.91;4995328;28;20545;-91
2023/04/04 00:57:44;;;;;;;0.63;0.63;;;;;;;-146.25;100.00;57403.91;4995574;28;20253;-89
2023/04/04 01:00:17;;;;;;;0.20;0.20;;;;;;;-146.25;100.00;57403.91;4995814;28;20288;-90
2023/04/04 01:02:56;;;;;;;0.37;0.37;;;;;;;-146.25;100.00;57403.91;4994572;28;20205;-90
2023/04/04 01:05:25;;;;;;;0.30;0.20;;;;;;;-146.25;100.00;57403.91;4995147;28;20268;-91
2023/04/04 01:08:02;;;;;;;0.30;0.30;;;;;;;-146.25;100.00;57403.91;4999073;28;20205;-91
2023/04/04 01:10:50;;;;;;;;;;;;;;;;;;;;;
2023/04/04 01:13:31;;;;;;;0.13;0.13;;;;;;;-146.25;100.00;57403.91;4994830;28;20205;-92
2023/04/04 01:16:16;;;;;;;0.00;0.00;;;;;;;-146.25;100.00;57403.91;4995437;28;20273;-92
2023/04/04 01:19:07;;;;;;;0.30;0.30;;;;;;;-146.25;100.00;57403.91;4995253;28;20224;-91
2023/04/04 01:21:38;;;;;;;0.37;0.37;;;;;;;-146.25;100.00;57403.91;4996511;28;20211;-91
2023/04/04 01:24:18;;;;;;;0.23;0.23;;;;;;;-146.25;100.00;57403.91;4995184;28;20201;-92
2023/04/04 01:39:56;;;;;;;0.20;0.20;;;;;;;-146.25;100.00;57403.91;4956375;28;20207;-93
2023/04/04 01:42:36;;;;;;;0.00;0.00;;;;;;;-146.25;100.00;57403.91;4959595;29;20301;-92
2023/04/04 01:45:49;;;;;;;0.47;0.47;;;;;;;-146.25;100.00;57403.91;4959259;29;20198;-93
2023/04/04 01:49:04;;;;;;;;;;;;;;;;;;;;;
2023/04/04 01:52:09;;;;;;;;;;;;;;;;;;;;;
2023/04/04 01:54:59;;;;;;;0.17;0.17;;;;;;;-146.25;100.00;57403.91;4965167;29;20241;-93
2023/04/04 01:57:50;;;;;;;;;;;;;;;;;;;;;
2023/04/04 02:00:38;;;;;;;0.30;0.20;;;;;;;-146.25;100.00;57403.91;4970400;29;20198;-92
2023/04/04 02:03:51;;;;;;;0.00;0.00;;;;;;;-146.25;100.00;57403.91;4980582;28;20209;-92
2023/04/04 02:06:55;;;;;;;0.93;0.20;;;;;;;-146.25;100.00;57403.91;5009789;28;20193;-94
2023/04/04 02:09:41;;;;;;;;;;;;;;;;;;;;;
2023/04/04 02:12:28;;;;;;;0.00;0.00;;;;;;;-146.25;100.00;57403.91;4997544;28;20612;-93
2023/04/04 02:15:07;;;;;;;0.00;0.00;;;;;;;-146.25;100.00;57403.91;5003190;28;20657;-92
2023/04/04 02:17:47;;;;;;;0.10;0.10;;;;;;;-146.25;100.00;57403.91;4996243;28;20316;-91
2023/04/04 02:20:48;;;;;;;0.13;0.13;;;;;;;-146.25;100.00;57403.91;4996119;28;20256;-90
2023/04/04 02:26:28;;;;;;;0.00;0.00;;;;;;;-146.25;100.00;57403.91;4993752;28;20268;-91
2023/04/04 02:29:01;;;;;;;0.10;0.10;;;;;;;-146.25;100.00;57403.91;4995715;28;20280;-91
2023/04/04 02:31:37;;;;;;;0.00;0.00;;;;;;;-146.25;100.00;57403.91;4994400;28;20229;-91
2023/04/04 02:34:07;;;;;;;0.10;0.10;;;;;;;-146.25;100.00;57403.91;4994293;28;20263;-93
2023/04/04 02:36:41;;;;;;;0.10;0.00;;;;;;;-146.25;100.00;57403.91;4975093;28;20605;-91
2023/04/04 02:39:18;;;;;;;0.00;0.00;;;;;;;-146.25;100.00;57403.91;4975062;28;20206;-91
2023/04/04 02:42:00;;;;;;;0.47;0.47;;;;;;;-146.25;100.00;57403.91;4973627;28;20225;-92
2023/04/04 02:44:37;;;;;;;0.10;0.10;;;;;;;-146.25;100.00;57403.91;4975666;28;20282;-93
2023/04/04 02:47:38;;;;;;;0.37;0.37;;;;;;;-146.25;100.00;57403.91;4974372;28;20260;-91
2023/04/04 02:50:17;;;;;;;0.00;0.00;;;;;;;-146.25;100.00;57403.91;4971109;28;20206;-91
2023/04/04 02:52:50;;;;;;;0.03;0.03;;;;;;;-146.25;100.00;57403.91;4975012;28;20206;-92
2023/04/04 02:55:19;;;;;;;0.00;0.00;;;;;;;-146.25;100.00;57403.91;4973467;28;20485;-92
2023/04/04 02:58:19;;;;;;;0.00;0.00;;;;;;;-146.25;100.00;57403.91;4973833;28;20288;-93
2023/04/04 03:00:54;;;;;;;0.63;0.10;;;;;;;-146.25;100.00;57403.91;4975374;28;20217;-93
2023/04/04 03:03:30;;;;;;;0.20;0.20;;;;;;;-146.25;100.00;57403.91;4975625;28;20210;-91
2023/04/04 03:06:06;;;;;;;0.00;0.00;;;;;;;-146.25;100.00;57403.91;4975072;28;20304;-91
2023/04/04 03:08:37;;;;;;;0.63;0.30;;;;;;;-146.25;100.00;57403.91;4975577;28;20203;-92
2023/04/04 03:11:12;;;;;;;0.20;0.20;;;;;;;-146.25;100.00;57403.91;4975474;28;20234;-93
2023/04/04 03:13:46;;;;;;;0.03;0.03;;;;;;;-146.25;100.00;57403.91;4956929;28;20194;-90
2023/04/04 03:16:18;;;;;;;0.10;0.10;;;;;;;-146.25;100.00;57403.91;4956143;29;20237;-92
2023/04/04 03:18:50;;;;;;;0.23;0.23;;;;;;;-146.25;100.00;57403.91;4956169;28;20234;-92
2023/04/04 03:21:34;;;;;;;1.70;1.07;;;;;;;-146.25;100.00;57403.91;4955948;28;20204;-91
2023/04/04 03:24:07;;;;;;;0.67;0.50;;;;;;;-146.25;100.00;57403.91;4955611;29;20258;-93
2023/04/04 03:26:41;;;;;;;0.73;0.63;;;;;;;-146.25;100.00;57403.91;4956793;29;20688;-93
2023/04/04 03:29:17;;;;;;;0.80;0.80;;;;;;;-146.25;100.00;57403.91;4960432;28;20218;-91
2023/04/04 03:31:51;;;;;;;1.53;1.27;;;;;;;-146.25;100.00;57403.91;4956937;29;20225;-92
2023/04/04 03:34:29;;;;;;;0.90;0.90;;;;;;;-146.25;100.00;57403.91;4965914;29;20205;-91
2023/04/04 03:39:50;;;;;;;0.20;0.20;;;;;;;-146.25;100.00;57403.91;4962332;28;20210;-92
2023/04/04 03:42:47;;;;;;;1.30;1.07;;;;;;;-146.25;100.00;57403.91;4961123;29;20207;-93
2023/04/04 03:45:31;;;;;;;0.53;0.53;;;;;;;-146.25;100.00;57403.91;4959789;28;20574;-93
2023/04/04 03:48:16;;;;;;;0.17;0.17;;;;;;;-146.25;100.00;57403.91;4961089;29;20199;-94
2023/04/04 03:51:08;;;;;;;0.47;0.47;;;;;;;-146.25;100.00;57403.91;4959717;28;20277;-89
2023/04/04 03:53:56;;;;;;;0.63;0.63;;;;;;;-146.25;100.00;57403.91;4955533;28;20199;-89
2023/04/04 03:56:37;;;;;;;0.80;0.80;;;;;;;-146.25;100.00;57403.91;4956527;29;20195;-88
2023/04/04 03:59:12;;;;;;;0.27;0.27;;;;;;;-146.25;100.00;57403.91;4955929;28;20234;-88
2023/04/04 04:01:55;;;;;;;0.63;0.63;;;;;;;-146.25;100.00;57403.91;4955189;29;20201;-91
2023/04/04 04:04:35;;;;;;;0.57;0.13;;;;;;;-146.25;100.00;57403.91;4955337;28;20210;-90
2023/04/04 04:07:10;;;;;;;0.27;0.23;;;;;;;-146.25;100.00;57403.91;4955411;29;20270;-90
2023/04/04 04:09:55;;;;;;;0.30;0.30;;;;;;;-146.25;100.00;57403.91;4955978;28;20306;-91
2023/04/04 04:12:31;;;;;;;0.40;0.40;;;;;;;-146.25;100.00;57403.91;4956135;29;20289;-90
2023/04/04 04:15:15;;;;;;;;;;;;;;;;;;;;;
2023/04/04 04:18:26;;;;;;;;;;;;;;;;;;;;;
2023/04/04 04:21:41;;;;;;;;;;;;;;;;;;;;;
2023/04/04 04:24:57;;;;;;;0.40;0.40;;;;;;;-146.25;100.00;57403.91;4903555;29;20607;-90
2023/04/04 04:28:01;;;;;;;0.60;0.60;;;;;;;-146.25;100.00;57403.91;4877523;29;20211;-90
2023/04/04 04:30:35;;;;;;;0.87;0.87;;;;;;;-146.25;100.00;57403.91;4922984;28;20364;-90
2023/04/04 04:33:08;;;;;;;0.63;0.63;;;;;;;-146.25;100.00;57403.91;4955493;29;20203;-89
2023/04/04 04:35:42;;;;;;;0.20;0.20;;;;;;;-146.25;100.00;57403.91;4956911;28;20202;-90
2023/04/04 04:38:15;;;;;;;1.00;1.00;;;;;;;-146.25;100.00;57403.91;4957163;28;20650;-88
2023/04/04 04:40:50;;;;;;;0.13;0.13;;;;;;;-146.25;100.00;57403.91;4960408;28;20220;-90
2023/04/04 04:43:42;;;;;;;0.37;0.37;;;;;;;-146.25;100.00;57403.91;4963941;28;20648;-90
2023/04/04 04:46:13;;;;;;;0.50;0.50;;;;;;;-146.25;100.00;57403.91;4962235;28;20676;-89
2023/04/04 04:48:45;;;;;;;0.60;0.53;;;;;;;-146.25;100.00;57403.91;4964312;28;20291;-90
2023/04/04 04:51:24;;;;;;;1.93;0.77;;;;;;;-146.25;100.00;57403.91;4957002;28;20224;-92
2023/04/04 04:54:07;;;;;;;0.60;0.60;;;;;;;-146.25;100.00;57403.91;4957675;28;20202;-91
2023/04/04 04:56:47;;;;;;;0.60;0.60;;;;;;;-146.25;100.00;57403.91;4957695;28;20218;-92
2023/04/04 04:59:22;;;;;;;0.90;0.90;;;;;;;-146.25;100.00;57403.91;4976171;28;20229;-92
2023/04/04 05:01:55;;;;;;;0.30;0.30;;;;;;;-146.25;100.00;57403.91;4957287;28;20591;-91
2023/04/04 05:04:36;;;;;;;0.90;0.70;;;;;;;-146.25;100.00;57403.91;4958011;28;20281;-91
2023/04/04 05:07:07;;;;;;;0.80;0.80;;;;;;;-146.25;100.00;57403.91;4956812;28;20287;-93
2023/04/04 05:09:49;;;;;;;4.73;1.87;;;;;;;-146.25;100.00;57403.91;4957624;28;20199;-92
2023/04/04 05:12:37;;;;;;;0.60;0.60;;;;;;;-146.25;100.00;57403.91;4957793;28;20230;-93
2023/04/04 05:18:18;;;;;;;0.77;0.77;;;;;;;-146.25;100.00;57403.91;4956205;28;20241;-92
2023/04/04 05:21:12;;;;;;;0.97;0.87;;;;;;;-146.25;100.00;57403.91;4959360;28;20212;-92
2023/04/04 05:23:49;;;;;;;1.00;1.00;;;;;;;-146.25;100.00;57403.91;4957659;28;20214;-92
2023/04/04 05:26:20;;;;;;;1.37;0.73;;;;;;;-146.25;100.00;57403.91;4958430;28;20187;-92
2023/04/04 05:28:51;;;;;;;1.23;0.70;;;;;;;-146.25;100.00;57403.91;4958484;28;20183;-92
2023/04/04 05:34:53;;;;;;;5.00;1.20;;;;;;;-146.25;100.00;57403.91;4951666;28;20201;-92
2023/04/04 05:37:56;;;;;;;2.97;2.03;;;;;;;-146.25;100.00;57403.91;4967012;28;20213;-93
2023/04/04 05:40:47;;;;;;;;;;;;;;;;;;;;;
2023/04/04 05:43:27;;;;;;;1.17;1.10;;;;;;;-146.25;100.00;57403.91;4969008;28;20206;-92
2023/04/04 05:46:07;;;;;;;1.97;0.90;;;;;;;-146.25;100.00;57403.91;4969281;28;20211;-93
2023/04/04 05:48:54;;;;;;;1.53;1.43;;;;;;;-146.25;100.00;57403.91;4958576;29;20259;-92
2023/04/04 05:51:34;;;;;;;2.60;1.80;;;;;;;-146.25;100.00;57403.91;4972377;28;20680;-92
2023/04/04 05:54:12;;;;;;;1.70;1.10;;;;;;;-146.25;100.00;57403.91;4977034;28;20219;-92
2023/04/04 05:57:17;;;;;;;2.37;2.13;;;;;;;-146.25;100.00;57403.91;4969304;28;20266;-94
2023/04/04 05:59:58;;;;;;;1.80;1.70;;;;;;;-146.25;100.00;57403.91;4968031;28;20229;-92
2023/04/04 06:02:43;;;;;;;1.90;1.20;;;;;;;-146.25;100.00;57403.91;4968015;28;20592;-92
2023/04/04 06:05:16;;;;;;;6.03;2.43;;;;;;;-146.25;100.00;57403.91;4960992;28;20208;-93
2023/04/04 06:07:59;;;;;;;1.50;1.30;;;;;;;-146.25;100.00;57403.91;4959223;28;20208;-93
2023/04/04 06:10:28;;;;;;;1.27;1.23;;;;;;;-146.25;100.00;57403.91;4959078;28;20226;-91
2023/04/04 06:13:08;;;;;;;1.50;1.33;;;;;;;-146.25;100.00;57403.91;4958703;29;20677;-92
2023/04/04 06:15:42;;;;;;;1.45;1.35;;;;;;;-146.25;100.00;57403.91;4959591;28;20202;-93
2023/04/04 06:18:20;;;;;;;1.15;1.10;;;;;;;-146.25;100.00;57403.91;4959967;28;20310;-93
2023/04/04 06:21:50;;;;;;;4.75;0.90;;;;;;;-146.25;100.00;57403.91;4985032;23;20234;-95
2023/04/04 06:25:03;;;;;;;4.53;1.27;;;;;;;-146.25;100.00;57403.91;4899230;29;20198;-93
2023/04/04 06:28:04;;;;;;;2.53;1.08;;;;;;;-146.25;100.00;57403.91;4909977;28;20215;-94
2023/04/04 06:34:15;;;;;;;4.73;1.53;;;;;;;-146.25;100.00;57403.91;4977210;28;20703;-93
2023/04/04 06:37:19;;;;;;;0.67;0.67;;;;;;;-146.25;100.00;57403.91;4998287;28;20204;-94
2023/04/04 06:40:29;;;;;;;2.63;1.00;;;;;;;-146.25;100.00;57403.91;5007591;28;20277;-93
2023/04/04 06:43:00;;;;;;;0.43;0.43;;;;;;;-146.25;100.00;57403.91;5013168;28;20225;-93
2023/04/04 06:45:32;;;;;;;0.30;0.30;;;;;;;-146.25;100.00;57403.91;5008718;28;20193;-93
2023/04/04 06:48:11;;;;;;;0.30;0.30;;;;;;;-146.25;100.00;57403.91;5011664;28;20186;-93
2023/04/04 06:51:13;;;;;;;0.20;0.20;;;;;;;-146.25;100.00;57403.91;5012545;28;20196;-93
2023/04/04 06:53:55;;;;;;;0.10;0.10;;;;;;;-146.25;100.00;57403.91;4991056;28;20308;-93
2023/04/04 06:59:49;;;;;;;0.00;0.00;;;;;;;-146.25;100.00;57403.91;5368922;23;20298;-92
2023/04/04 07:02:46;;;;;;;0.03;0.03;;;;;;;-146.25;100.00;57403.91;5006684;28;20212;-95
2023/04/04 07:05:31;;;;;;;0.10;0.00;;;;;;;-146.25;100.00;57403.91;5007793;28;20479;-94
2023/04/04 07:08:40;;;;;;;0.00;0.00;;;;;;;-146.25;100.00;57403.91;5002493;28;20312;-93
2023/04/04 07:11:22;;;;;;;;;;;;;;;;;;;;;
2023/04/04 07:17:18;;;;;;;0.07;0.07;;;;;;;-146.25;100.00;57403.91;5005003;28;20226;-94
2023/04/04 07:20:06;;;;;;;0.00;0.00;;;;;;;-146.25;100.00;57403.91;4985385;28;20235;-95
2023/04/04 07:22:57;;;;;;;1.00;0.90;;;;;;;-146.25;100.00;57403.91;5003009;28;20206;-94
2023/04/04 07:25:50;;;;;;;1.20;1.10;;;;;;;-146.25;100.00;57403.91;5000227;28;20209;-92
2023/04/04 07:31:38;;;;;;;1.30;0.40;;;;;;;-146.25;100.00;57403.91;5001090;28;20212;-95
2023/04/04 07:34:43;;;;;;;0.97;0.97;;;;;;;-146.25;100.00;57403.91;5004421;28;20197;-94
2023/04/04 07:37:26;;;;;;;0.40;0.40;;;;;;;-146.25;100.00;57403.91;4991942;28;20232;-94
2023/04/04 07:40:19;;;;;;;0.77;0.50;;;;;;;-146.25;100.00;57403.91;5001598;28;20248;-94
2023/04/04 07:43:02;;;;;;;0.00;0.00;;;;;;;-146.25;100.00;57403.91;5001703;28;20276;-93
2023/04/04 07:45:38;;;;;;;0.07;0.00;;;;;;;-146.25;100.00;57403.91;5000993;28;20218;-94
2023/04/04 07:48:10;;;;;;;0.10;0.10;;;;;;;-146.25;100.00;57403.91;4995503;28;20722;-94
2023/04/04 07:50:59;;;;;;;0.00;0.00;;;;;;;-146.25;100.00;57403.91;5003859;28;20228;-93
2023/04/04 07:53:49;;;;;;;0.00;0.00;;;;;;;-146.25;100.00;57403.91;5001111;28;20271;-94
2023/04/04 07:56:28;;;;;;;0.03;0.03;;;;;;;-146.25;100.00;57403.91;4999355;28;20296;-95
2023/04/04 07:59:17;;;;;;;0.00;0.00;;;;;;;-146.25;100.00;57403.91;4987514;28;20309;-93
2023/04/04 08:02:02;;;;;;;0.10;0.10;;;;;;;-146.25;100.00;57403.91;5001068;28;20248;-95
2023/04/04 08:04:47;;;;;;;0.10;0.10;;;;;;;-146.25;100.00;57403.91;4982923;28;20641;-93
2023/04/04 08:07:25;;;;;;;0.10;0.10;;;;;;;-146.25;100.00;57403.91;4984268;28;20206;-92
2023/04/04 08:10:06;;;;;;;0.00;0.00;;;;;;;-146.25;100.00;57403.91;4984489;28;20221;-94
2023/04/04 08:12:41;;;;;;;0.60;0.47;;;;;;;-146.25;100.00;57403.91;4985039;28;20627;-93
2023/04/04 08:15:23;;;;;;;0.07;0.07;;;;;;;-146.25;100.00;57403.91;4986136;28;20225;-94
2023/04/04 08:18:09;;;;;;;0.13;0.13;;;;;;;-146.25;100.00;57403.91;4985822;28;20202;-93
2023/04/04 08:20:49;;;;;;;0.53;0.20;;;;;;;-146.25;100.00;57403.91;4988399;28;20220;-93
2023/04/04 08:23:39;;;;;;;0.00;0.00;;;;;;;-146.25;100.00;57403.91;4989877;28;20198;-95
2023/04/04 08:26:25;;;;;;;0.10;0.10;;;;;;;-146.25;100.00;57403.91;4989670;28;20186;-94
2023/04/04 08:29:18;;;;;;;0.00;0.00;;;;;;;-146.25;100.00;57403.91;4989632;28;20217;-93
2023/04/04 08:32:03;;;;;;;0.00;0.00;;;;;;;-146.25;100.00;57403.91;4950209;28;20202;-95
2023/04/04 08:34:48;;;;;;;0.20;0.20;;;;;;;-146.25;100.00;57403.91;4993908;28;20188;-94
2023/04/04 08:37:21;;;;;;;2.17;1.30;;;;;;;-146.25;100.00;57403.91;4996046;28;20194;-92
2023/04/04 08:39:53;;;;;;;0.00;0.00;;;;;;;-146.25;100.00;57403.91;4990869;28;20236;-93
2023/04/04 08:42:48;;;;;;;;;;;;;;;;;;;;;
2023/04/04 08:45:25;;;;;;;0.03;0.03;;;;;;;-146.25;100.00;57403.91;4983859;28;20198;-92
2023/04/04 08:47:57;;;;;;;0.30;0.30;;;;;;;-146.25;100.00;57403.91;4983063;28;20210;-93
2023/04/04 08:50:31;;;;;;;0.10;0.10;;;;;;;-146.25;100.00;57403.91;4983120;28;20225;-94
2023/04/04 08:53:13;;;;;;;0.00;0.00;;;;;;;-146.25;100.00;57403.91;4988892;28;20204;-93
2023/04/04 08:55:53;;;;;;;0.00;0.00;;;;;;;-146.25;100.00;57403.91;4985895;28;20229;-91
2023/04/04 08:58:39;;;;;;;0.00;0.00;;;;;;;-146.25;100.00;57403.91;4983348;28;20278;-94
2023/04/04 09:01:39;;;;;;;0.00;0.00;;;;;;;-146.25;100.00;57403.91;4983420;28;20181;-93
2023/04/04 09:04:29;;;;;;;0.00;0.00;;;;;;;-146.25;100.00;57403.91;4983709;28;20206;-96
2023/04/04 09:07:05;;;;;;;0.00;0.00;;;;;;;-146.25;100.00;57403.91;4983274;28;20208;-93
2023/04/04 09:09:40;;;;;;;0.33;0.20;;;;;;;-146.25;100.00;57403.91;4984751;28;20284;-95
2023/04/04 09:12:27;;;;;;;0.03;0.03;;;;;;;-146.25;100.00;57403.91;4982729;28;20202;-95
2023/04/04 09:15:10;;;;;;;0.10;0.10;;;;;;;-146.25;100.00;57403.91;4980623;28;20210;-94
2023/04/04 09:17:53;;;;;;;0.10;0.10;;;;;;;-146.25;100.00;57403.91;4982304;28;20229;-94
2023/04/04 09:21:42;;;;;;;;;;;;;;;;;;;;;
2023/04/04 09:24:14;;;;;;;0.40;0.40;;;;;;;-146.25;100.00;57403.91;4981481;28;20198;-95
2023/04/04 09:27:15;;;;;;;3.47;0.40;;;;;;;-146.25;100.00;57403.91;4982686;28;20678;-93
2023/04/04 09:32:56;;;;;;;0.00;0.00;;;;;;;-146.25;100.00;57403.91;4978854;28;20202;-94
2023/04/04 09:35:42;;;;;;;0.30;0.30;;;;;;;-146.25;100.00;57403.91;4981151;28;20205;-96
2023/04/04 09:38:12;;;;;;;0.00;0.00;;;;;;;-146.25;100.00;57403.91;4981554;28;20206;-94
2023/04/04 09:41:02;;;;;;;0.10;0.10;;;;;;;-146.25;100.00;57403.91;4985705;28;20256;-94
2023/04/04 09:44:00;;;;;;;;;;;;;;;;;;;;;
2023/04/04 09:46:51;;;;;;;0.27;0.27;;;;;;;-146.25;100.00;57403.91;4989795;28;20216;-94
2023/04/04 09:49:54;;;;;;;0.00;0.00;;;;;;;-146.25;100.00;57403.91;4990509;28;20221;-95
2023/04/04 09:52:43;;;;;;;0.00;0.00;;;;;;;-146.25;100.00;57403.91;4992917;28;20224;-95
2023/04/04 09:55:29;;;;;;;0.23;0.23;;;;;;;-146.25;100.00;57403.91;5000980;28;20205;-96
2023/04/04 09:58:34;;;;;;;;;;;;;;;;;;;;;
2023/04/04 10:07:52;;;;;;;0.00;0.00;;;;;;;-146.25;100.00;57403.91;5004276;23;20333;-93
2023/04/04 10:11:32;;;;;;;;;;;;;;;;;;;;;
2023/04/04 10:14:34;;;;;;;0.10;0.10;;;;;;;-146.25;100.00;57403.91;4885098;29;21138;-94
2023/04/04 10:17:25;;;;;;;0.27;0.27;;;;;;;-146.25;100.00;57403.91;4956329;29;20226;-95
2023/04/04 10:23:22;;;;;;;0.20;0.20;;;;;;;-146.25;100.00;57403.91;4939909;28;20302;-95
2023/04/04 10:26:21;;;;;;;0.00;0.00;;;;;;;-146.25;100.00;57403.91;4942265;29;20243;-93
2023/04/04 10:32:17;;;;;;;;;;;;;;;;;;;;;
2023/04/04 10:35:24;;;;;;;0.27;0.27;;;;;;;-146.25;100.00;57403.91;4945579;29;20235;-94
2023/04/04 10:38:24;;;;;;;0.17;0.17;;;;;;;-146.25;100.00;57403.91;4942934;28;20227;-95
2023/04/04 10:41:11;;;;;;;0.37;0.30;;;;;;;-146.25;100.00;57403.91;4942911;29;20238;-94
2023/04/04 10:43:52;;;;;;;0.00;0.00;;;;;;;-146.25;100.00;57403.91;4942910;29;20234;-94
2023/04/04 10:46:30;;;;;;;0.20;0.20;;;;;;;-146.25;100.00;57403.91;4956910;29;20230;-94
2023/04/04 10:49:14;;;;;;;0.50;0.37;;;;;;;-146.25;100.00;57403.91;4937573;29;20235;-94
2023/04/04 10:51:52;;;;;;;0.00;0.00;;;;;;;-146.25;100.00;57403.91;4952427;29;20297;-95
2023/04/04 10:54:54;;;;;;;0.10;0.10;;;;;;;-146.25;100.00;57403.91;4961899;28;20226;-95
2023/04/04 10:57:38;;;;;;;0.00;0.00;;;;;;;-146.25;100.00;57403.91;4960274;28;20226;-94
2023/04/04 11:00:47;;;;;;;;;;;;;;;;;;;;;
2023/04/04 11:10:30;;;;;;;0.20;0.20;;;;;;;-146.25;100.00;57403.91;4955507;28;20242;-96
2023/04/04 11:13:34;;;;;;;0.10;0.10;;;;;;;-146.25;100.00;57403.91;4965504;28;20231;-96
2023/04/04 11:16:31;;;;;;;0.10;0.10;;;;;;;-146.25;100.00;57403.91;4983279;28;20229;-94
2023/04/04 11:19:15;;;;;;;0.13;0.13;;;;;;;-146.25;100.00;57403.91;4984479;28;20264;-92
2023/04/04 11:22:21;;;;;;;0.10;0.10;;;;;;;-146.25;100.00;57403.91;4982737;28;20232;-92
2023/04/04 11:25:33;;;;;;;;;;;;;;;;;;;;;
2023/04/04 11:28:49;;;;;;;0.20;0.20;;;;;;;-146.25;100.00;57403.91;4981603;28;20736;-92
2023/04/04 11:34:59;;;;;;;0.13;0.13;;;;;;;-146.25;100.00;57403.91;4982637;28;20237;-94
2023/04/04 11:38:25;;;;;;;0.00;0.00;;;;;;;-146.25;100.00;57403.91;4986042;28;20214;-93
2023/04/04 11:47:55;;;;;;;0.10;0.10;;;;;;;-146.25;100.00;57403.91;4986119;28;20245;-94
2023/04/04 11:54:43;;;;;;;2.63;0.63;;;;;;;-146.25;100.00;57403.91;4884923;29;20236;-94
2023/04/04 12:17:33;;;;;;;0.87;0.60;;;;;;;-146.25;100.00;57403.91;4949394;28;20241;-95
2023/04/04 12:20:13;;;;;;;0.50;0.50;;;;;;;-146.25;100.00;57403.91;4986711;28;20241;-94
2023/04/04 12:33:16;;;;;;;0.13;0.13;;;;;;;-146.25;100.00;57403.91;4921921;29;20242;-94
2023/04/04 12:39:39;;;;;;;0.00;0.00;;;;;;;-146.25;100.00;57403.91;4942265;29;20239;-94
2023/04/04 12:42:50;;;;;;;0.30;0.30;;;;;;;-146.25;100.00;57403.91;4908469;29;20253;-94
2023/04/04 12:46:11;;;;;;;1.20;0.70;;;;;;;-146.25;100.00;57403.91;4951305;29;20241;-96
2023/04/04 12:52:54;;;;;;;0.13;0.13;;;;;;;-146.25;100.00;57403.91;4997913;23;20249;-94
2023/04/04 12:56:01;;;;;;;0.40;0.40;;;;;;;-146.25;100.00;57403.91;5006342;28;20226;-95
2023/04/04 13:05:07;;;;;;;0.40;0.40;;;;;;;-146.25;100.00;57403.91;5005926;28;20228;-94
2023/04/04 13:08:21;;;;;;;;;;;;;;;;;;;;;
2023/04/04 13:14:26;;;;;;;0.60;0.23;;;;;;;-146.25;100.00;57403.91;5018824;28;20235;-93
2023/04/04 13:17:31;;;;;;;0.43;0.37;;;;;;;-146.25;100.00;57403.91;5023110;28;20239;-94
2023/04/04 13:43:28;;;;;;;;;;;;;;;;;;;;;
2023/04/04 19:06:43;;;;;;;0.80;0.63;;;;;;;-146.25;100.00;57403.91;4992136;28;20249;-91
2023/04/04 22:38:55;;;;;;;0.87;0.87;;;;;;;-146.25;100.00;57403.91;4953155;28;20215;-94
2023/04/04 23:14:37;;;;;;;0.30;0.30;;;;;;;-146.25;100.00;57403.91;4985591;28;20674;-94
2023/04/04 23:18:14;;;;;;;0.27;0.27;;;;;;;-146.25;100.00;57403.91;4968212;28;20206;-93
2023/04/04 23:22:18;;;;;;;;;;;;;;;;;;;;;
2023/04/04 23:25:48;;;;;;;0.50;0.50;;;;;;;-146.25;100.00;57403.91;4975916;28;20195;-95
2023/04/04 23:40:29;;;;;;;0.40;0.40;;;;;;;-146.25;100.00;57403.91;4970462;28;20222;-94
2023/04/04 23:44:19;;;;;;;1.50;0.57;;;;;;;-146.25;100.00;57403.91;4966796;28;20235;-95
2023/04/04 23:52:05;;;;;;;1.80;1.80;;;;;;;-146.25;100.00;57403.91;5017274;23;20249;-95
